Time;durP1;ratioP1;P1;durP2;ratioP2;P2;SDS_P1;SDS_P2;PMS_P1;PMS_P2;Temp;Humidity;BMP_temperature;BMP_pressure;BME280_temperature;BME280_humidity;BME280_pressure;Samples;Min_cycle;Max_cycle;Signal;HPM_P1;HPM_P2
2022/04/25 00:01:26;;;;;;;12.37;7.28;;;;;;;6.35;100.00;100450.99;1749873;82;20834;-46
2022/04/25 00:03:53;;;;;;;13.38;8.45;;;;;;;6.36;100.00;100452.70;1749839;82;21211;-46
2022/04/25 00:06:19;;;;;;;15.50;7.80;;;;;;;6.35;100.00;100453.56;1749847;82;20921;-46
2022/04/25 00:08:47;;;;;;;16.05;7.10;;;;;;;6.35;100.00;100449.29;1749944;81;20989;-46
2022/04/25 00:11:15;;;;;;;17.50;8.43;;;;;;;6.34;100.00;100450.16;1749823;82;21311;-46
2022/04/25 00:13:43;;;;;;;12.93;7.40;;;;;;;6.33;100.00;100448.44;1749969;82;20964;-46
2022/04/25 00:16:11;;;;;;;16.05;8.43;;;;;;;6.33;100.00;100448.44;1750033;82;22120;-45
2022/04/25 00:18:38;;;;;;;11.12;8.40;;;;;;;6.37;100.00;100436.41;1722090;82;21069;-46
2022/04/25 00:21:05;;;;;;;16.17;8.38;;;;;;;6.41;100.00;100438.98;1749806;82;21053;-46
2022/04/25 00:23:33;;;;;;;13.45;8.48;;;;;;;6.46;100.00;100436.42;1749901;82;20936;-46
2022/04/25 00:26:01;;;;;;;14.15;8.20;;;;;;;6.49;100.00;100439.40;1749937;82;20940;-46
2022/04/25 00:28:30;;;;;;;12.58;7.78;;;;;;;6.46;100.00;100439.00;1749758;82;20960;-46
2022/04/25 00:30:57;;;;;;;14.40;8.25;;;;;;;6.43;100.00;100437.27;1749879;82;20841;-45
2022/04/25 00:33:24;;;;;;;12.18;8.25;;;;;;;6.41;100.00;100431.28;1698398;82;20936;-45
2022/04/25 00:35:52;;;;;;;19.17;8.70;;;;;;;6.39;100.00;100433.41;1749778;82;20937;-45
2022/04/25 00:38:20;;;;;;;18.10;8.45;;;;;;;6.38;100.00;100430.41;1749882;82;20885;-45
2022/04/25 00:40:48;;;;;;;15.05;8.08;;;;;;;6.38;100.00;100427.84;1749951;82;20909;-46
2022/04/25 00:43:16;;;;;;;10.30;8.03;;;;;;;6.36;100.00;100430.84;1749849;82;21003;-45
2022/04/25 00:45:43;;;;;;;16.17;8.28;;;;;;;6.36;100.00;100427.86;1749894;81;20983;-45
2022/04/25 00:48:10;;;;;;;12.47;8.33;;;;;;;6.35;100.00;100428.72;1749858;81;20984;-45
2022/04/25 00:50:38;;;;;;;12.43;8.15;;;;;;;6.30;100.00;100431.70;1749899;81;21172;-45
2022/04/25 00:53:08;;;;;;;19.00;8.10;;;;;;;6.27;100.00;100433.87;1749588;82;21031;-45
2022/04/25 00:55:36;;;;;;;13.35;7.92;;;;;;;6.24;100.00;100427.86;1749539;82;20884;-45
2022/04/25 00:58:03;;;;;;;16.17;8.15;;;;;;;6.20;100.00;100432.17;1749941;82;20896;-46
2022/04/25 01:00:32;;;;;;;14.70;7.97;;;;;;;6.17;100.00;100437.28;1749770;82;20932;-46
2022/04/25 01:02:59;;;;;;;18.67;8.95;;;;;;;6.15;100.00;100436.43;1722342;82;21011;-45
2022/04/25 01:06:22;;;;;;;12.95;9.03;;;;;;;6.19;100.00;100434.31;1798476;79;22231;-44
2022/04/25 01:08:51;;;;;;;13.85;8.23;;;;;;;6.14;100.00;100442.43;1758081;80;21553;-44
2022/04/25 01:11:18;;;;;;;12.93;8.40;;;;;;;6.13;100.00;100443.29;1758107;81;21411;-45
2022/04/25 01:13:46;;;;;;;19.67;9.33;;;;;;;6.13;100.00;100446.73;1757969;81;20928;-45
2022/04/25 01:16:14;;;;;;;19.12;8.78;;;;;;;6.16;100.00;100443.28;1758145;81;20909;-45
2022/04/25 01:18:41;;;;;;;13.30;8.98;;;;;;;6.19;100.00;100438.17;1714594;81;20937;-45
2022/04/25 01:21:11;;;;;;;13.75;8.80;;;;;;;6.23;100.00;100438.59;1758091;81;20972;-45
2022/04/25 01:29:12;;;;;;;18.62;8.15;;;;;;;6.20;100.00;100434.74;1758178;81;20932;-45
2022/04/25 01:31:41;;;;;;;12.65;7.87;;;;;;;6.14;100.00;100427.88;1757994;81;21438;-46
2022/04/25 01:34:07;;;;;;;16.82;8.88;;;;;;;6.15;100.00;100423.58;1757997;81;20971;-46
2022/04/25 01:36:35;;;;;;;21.20;9.70;;;;;;;6.13;100.00;100416.30;1751088;81;21217;-46
2022/04/25 01:39:03;;;;;;;18.25;7.45;;;;;;;6.12;100.00;100410.73;1749650;82;20979;-46
2022/04/25 01:41:30;;;;;;;19.17;8.45;;;;;;;6.12;100.00;100412.02;1749816;82;20984;-46
2022/04/25 01:43:57;;;;;;;17.65;7.78;;;;;;;6.12;100.00;100406.47;1749668;82;20970;-46
2022/04/25 01:46:23;;;;;;;10.70;7.67;;;;;;;6.11;100.00;100407.73;1749744;82;20881;-46
2022/04/25 01:48:50;;;;;;;11.35;7.90;;;;;;;6.07;100.00;100411.17;1749738;82;22978;-46
2022/04/25 01:51:16;;;;;;;13.03;7.90;;;;;;;6.02;100.00;100412.03;1749806;82;21552;-46
2022/04/25 01:53:44;;;;;;;16.80;7.95;;;;;;;5.97;100.00;100406.02;1749639;82;21666;-45
2022/04/25 01:56:11;;;;;;;16.73;7.53;;;;;;;5.96;100.00;100413.70;1720142;82;20936;-46
2022/04/25 01:58:37;;;;;;;16.50;7.60;;;;;;;5.93;100.00;100408.12;1749837;82;20956;-46
2022/04/25 02:01:08;;;;;;;16.10;7.42;;;;;;;5.92;100.00;100408.98;1749675;82;21183;-45
2022/04/25 02:03:35;;;;;;;15.25;7.10;;;;;;;5.92;100.00;100405.58;1749762;81;20837;-46
2022/04/25 02:06:03;;;;;;;17.77;7.08;;;;;;;5.95;100.00;100405.58;1739805;81;20952;-46
2022/04/25 02:08:29;;;;;;;15.10;7.20;;;;;;;6.00;100.00;100403.85;1736605;82;21518;-46
2022/04/25 02:13:42;;;;;;;11.57;7.85;;;;;;;6.08;100.00;100405.17;1736820;82;21179;-45
2022/04/25 02:16:10;;;;;;;20.80;8.20;;;;;;;6.10;100.00;100407.31;1736280;82;21056;-45
2022/04/25 02:18:43;;;;;;;15.72;7.20;;;;;;;6.12;100.00;100409.03;1736066;82;21020;-46
2022/04/25 02:21:08;;;;;;;12.95;7.00;;;;;;;6.17;100.00;100402.58;1735878;82;20929;-46
2022/04/25 02:23:36;;;;;;;15.75;7.03;;;;;;;6.20;100.00;100412.02;1736065;82;20988;-45
2022/04/25 02:26:02;;;;;;;14.03;7.60;;;;;;;6.21;100.00;100406.89;1736022;82;21209;-45
2022/04/25 02:28:29;;;;;;;19.45;7.97;;;;;;;6.21;100.00;100397.89;1735839;82;21007;-47
2022/04/25 02:30:58;;;;;;;19.12;7.67;;;;;;;6.22;100.00;100402.17;1735928;82;20890;-46
2022/04/25 02:33:27;;;;;;;12.95;7.85;;;;;;;6.22;100.00;100402.17;1735996;82;20898;-45
2022/04/25 02:35:54;;;;;;;13.60;8.38;;;;;;;6.24;100.00;100410.73;1736136;82;21565;-45
2022/04/25 02:38:21;;;;;;;12.82;7.80;;;;;;;6.25;100.00;100415.02;1735986;81;21392;-46
2022/04/25 02:41:04;;;;;;;11.40;7.85;;;;;;;6.24;100.00;100415.88;1736172;82;21458;-45
2022/04/25 02:43:16;;;;;;;13.25;8.20;;;;;;;6.23;100.00;100418.02;1733826;82;21395;-45
2022/04/25 02:45:43;;;;;;;21.40;8.20;;;;;;;6.24;100.00;100424.00;1735999;82;21456;-45
2022/04/25 02:48:09;;;;;;;11.95;7.87;;;;;;;6.24;100.00;100425.29;1736141;82;20866;-46
2022/04/25 02:50:39;;;;;;;14.23;8.60;;;;;;;6.23;100.00;100415.87;1735798;81;21983;-45
2022/04/25 02:53:05;;;;;;;15.25;8.65;;;;;;;6.24;100.00;100415.88;1735851;82;20996;-46
2022/04/25 02:55:32;;;;;;;16.95;8.30;;;;;;;6.27;100.00;100418.86;1735910;82;20977;-45
2022/04/25 02:58:00;;;;;;;13.72;7.67;;;;;;;6.29;100.00;100419.70;1736045;82;21506;-46
2022/04/25 03:00:29;;;;;;;13.75;7.85;;;;;;;6.31;100.00;100416.70;1736109;82;20960;-46
2022/04/25 03:02:57;;;;;;;14.25;8.00;;;;;;;6.36;100.00;100429.15;1735954;82;20996;-45
2022/04/25 03:05:24;;;;;;;20.57;8.60;;;;;;;6.39;100.00;100429.55;1745685;81;20892;-46
2022/04/25 03:07:51;;;;;;;14.35;7.97;;;;;;;6.43;100.00;100429.97;1754917;81;20897;-46
2022/04/25 03:10:17;;;;;;;14.13;8.63;;;;;;;6.49;100.00;100433.84;1757755;81;20982;-46
2022/04/25 03:12:45;;;;;;;17.17;7.95;;;;;;;6.53;100.00;100430.81;1757750;81;20991;-45
2022/04/25 03:15:12;;;;;;;15.43;8.08;;;;;;;6.60;100.00;100430.80;1757633;81;21172;-46
2022/04/25 03:17:41;;;;;;;13.78;8.20;;;;;;;6.65;100.00;100433.37;1757590;81;20936;-46
2022/04/25 03:20:10;;;;;;;17.02;7.92;;;;;;;6.69;100.00;100427.36;1757649;80;20940;-46
2022/04/25 03:22:38;;;;;;;16.07;7.65;;;;;;;6.76;100.00;100425.18;1757595;81;20944;-46
2022/04/25 03:25:06;;;;;;;13.83;7.35;;;;;;;6.82;100.00;100417.02;1757631;81;21046;-46
2022/04/25 03:27:33;;;;;;;17.48;7.92;;;;;;;6.87;100.00;100420.45;1757625;81;21182;-46
2022/04/25 03:29:59;;;;;;;21.77;7.95;;;;;;;6.93;100.00;100417.84;1757478;81;20932;-46
2022/04/25 03:32:26;;;;;;;19.77;7.58;;;;;;;7.00;100.00;100417.39;1757648;81;20967;-46
2022/04/25 03:34:53;;;;;;;17.67;8.30;;;;;;;7.09;100.00;100419.92;1757552;81;20896;-46
2022/04/25 03:37:20;;;;;;;18.35;6.85;;;;;;;7.15;100.00;100420.33;1757648;81;20975;-46
2022/04/25 03:39:47;;;;;;;16.27;7.33;;;;;;;7.22;100.00;100425.02;1757607;81;21080;-46
2022/04/25 03:42:13;;;;;;;19.12;7.15;;;;;;;7.31;100.00;100426.25;1757726;80;20916;-46
2022/04/25 03:44:41;;;;;;;13.98;7.00;;;;;;;7.43;100.00;100424.88;1730297;81;21466;-46
2022/04/25 03:47:08;;;;;;;16.57;7.12;;;;;;;7.54;100.00;100429.12;1757593;81;20888;-46
2022/04/25 03:49:35;;;;;;;17.87;6.53;;;;;;;7.66;100.00;100436.77;1757777;81;20920;-46
2022/04/25 03:52:02;;;;;;;14.93;6.50;;;;;;;7.81;100.00;100428.06;1757615;81;22108;-46
2022/04/25 03:57:15;;;;;;;12.50;5.83;;;;;;;8.16;100.00;100423.49;1757965;81;20986;-46
2022/04/25 03:59:42;;;;;;;13.50;6.33;;;;;;;8.36;100.00;100423.75;1757714;81;20888;-47
2022/04/25 04:02:09;;;;;;;16.42;6.65;;;;;;;8.51;100.00;100426.64;1757589;81;20872;-46
2022/04/25 04:04:36;;;;;;;14.87;6.85;;;;;;;8.68;100.00;100431.62;1757691;81;21734;-47
2022/04/25 04:07:03;;;;;;;11.83;6.78;;;;;;;8.84;100.00;100448.65;1738097;81;21526;-46
2022/04/25 04:09:46;;;;;;;13.85;5.83;;;;;;;9.01;100.00;100434.25;1735806;82;20969;-47
2022/04/25 04:12:15;;;;;;;14.13;5.65;;;;;;;9.13;100.00;100431.95;1735951;82;20941;-46
2022/04/25 04:14:43;;;;;;;13.25;6.30;;;;;;;9.29;100.00;100442.09;1735838;81;20893;-46
2022/04/25 04:17:09;;;;;;;16.70;6.80;;;;;;;9.45;100.00;100429.81;1735906;82;21230;-46
2022/04/25 04:19:37;;;;;;;9.28;5.47;;;;;;;9.58;100.00;100433.08;1735782;82;20894;-46
2022/04/25 04:22:05;;;;;;;12.33;6.33;;;;;;;9.74;100.00;100436.28;1735876;82;21530;-46
2022/04/25 04:24:34;;;;;;;16.75;6.60;;;;;;;9.88;100.00;100431.77;1715097;82;21431;-46
2022/04/25 04:27:04;;;;;;;16.87;6.42;;;;;;;10.02;100.00;100431.97;1735949;82;20973;-46
2022/04/25 04:29:32;;;;;;;14.38;6.78;;;;;;;10.19;100.00;100438.14;1735873;82;21238;-46
2022/04/25 04:32:05;;;;;;;13.05;6.50;;;;;;;10.38;100.00;100431.36;1735942;82;21443;-46
2022/04/25 04:34:37;;;;;;;16.32;6.03;;;;;;;10.55;100.00;100428.06;1736027;82;20929;-46
2022/04/25 04:37:04;;;;;;;12.90;5.72;;;;;;;10.73;100.00;100432.45;1735810;82;20893;-46
2022/04/25 04:39:31;;;;;;;16.27;6.22;;;;;;;10.83;100.00;100430.54;1715145;82;20973;-46
2022/04/25 04:41:58;;;;;;;10.23;5.10;;;;;;;10.98;100.00;100435.84;1736033;82;21149;-48
2022/04/25 04:44:25;;;;;;;13.62;6.50;;;;;;;11.15;100.00;100436.36;1735628;82;21585;-46
2022/04/25 04:46:51;;;;;;;15.65;6.30;;;;;;;11.29;100.00;100437.82;1735887;82;20933;-47
2022/04/25 04:49:18;;;;;;;15.38;6.83;;;;;;;11.47;100.00;100434.80;1735943;82;20961;-47
2022/04/25 04:51:44;;;;;;;12.98;5.97;;;;;;;11.62;100.00;100439.23;1735821;82;20996;-46
2022/04/25 04:54:11;;;;;;;14.25;6.22;;;;;;;11.81;100.00;100443.55;1715106;82;21263;-46
2022/04/25 04:56:38;;;;;;;13.58;5.55;;;;;;;11.97;98.47;100447.91;1735909;82;20917;-47
2022/04/25 04:59:05;;;;;;;13.15;5.80;;;;;;;12.09;97.03;100444.20;1735892;82;21477;-46
2022/04/25 05:01:32;;;;;;;15.68;6.30;;;;;;;12.18;95.42;100442.69;1714891;82;21027;-47
2022/04/25 05:03:59;;;;;;;13.60;5.97;;;;;;;12.27;94.56;100435.55;1735866;82;20917;-47
2022/04/25 05:06:28;;;;;;;12.55;5.90;;;;;;;12.34;93.11;100431.47;1742731;82;21269;-47
2022/04/25 05:08:55;;;;;;;15.40;6.08;;;;;;;12.42;92.00;100431.70;1749618;81;21066;-47
2022/04/25 05:11:23;;;;;;;13.88;5.95;;;;;;;12.49;91.75;100432.80;1749898;80;21419;-47
2022/04/25 05:13:51;;;;;;;12.88;5.97;;;;;;;12.57;90.68;100436.50;1749862;81;20889;-45
2022/04/25 05:16:17;;;;;;;13.40;6.20;;;;;;;12.68;90.65;100432.74;1749842;82;20980;-46
2022/04/25 05:18:44;;;;;;;12.18;6.50;;;;;;;12.89;90.65;100440.41;1749895;81;21258;-47
2022/04/25 05:21:13;;;;;;;16.55;5.30;;;;;;;13.06;89.02;100430.36;1749765;82;20983;-48
2022/04/25 05:23:42;;;;;;;15.98;6.72;;;;;;;13.13;88.61;100428.43;1749677;82;20896;-48
2022/04/25 05:26:08;;;;;;;15.83;6.97;;;;;;;13.20;87.61;100427.81;1722508;82;20913;-47
2022/04/25 05:28:37;;;;;;;17.07;6.55;;;;;;;13.24;87.37;100428.12;1749898;82;21458;-46
2022/04/25 05:31:05;;;;;;;18.23;6.60;;;;;;;13.33;86.76;100433.03;1749992;82;20988;-47
2022/04/25 05:33:32;;;;;;;13.30;6.78;;;;;;;13.37;86.24;100433.80;1722371;82;21502;-48
2022/04/25 05:35:59;;;;;;;12.70;5.80;;;;;;;13.37;86.33;100440.30;1749675;82;20908;-46
2022/04/25 05:38:25;;;;;;;17.77;6.72;;;;;;;13.40;86.40;100438.06;1749763;82;20980;-47
2022/04/25 05:40:52;;;;;;;10.78;5.75;;;;;;;13.46;86.08;100441.34;1749863;82;20885;-46
2022/04/25 05:43:20;;;;;;;18.40;6.20;;;;;;;13.54;86.09;100439.80;1749802;82;20979;-46
2022/04/25 05:45:47;;;;;;;16.50;6.42;;;;;;;13.59;85.93;100439.20;1749745;82;20976;-46
2022/04/25 05:53:44;;;;;;;13.25;5.85;;;;;;;13.98;85.24;100429.33;1749996;81;21042;-48
2022/04/25 05:56:12;;;;;;;17.95;6.65;;;;;;;14.16;84.81;100435.67;1750256;82;20991;-46
2022/04/25 05:58:39;;;;;;;17.35;7.20;;;;;;;14.26;83.36;100436.21;1749852;82;20980;-46
2022/04/25 06:01:06;;;;;;;15.95;6.70;;;;;;;14.33;83.37;100438.56;1749911;82;21004;-46
2022/04/25 06:03:32;;;;;;;15.13;6.17;;;;;;;14.48;83.59;100435.88;1749875;82;20896;-46
2022/04/25 06:05:59;;;;;;;18.35;6.33;;;;;;;14.63;83.07;100433.17;1749947;81;20948;-47
2022/04/25 06:08:26;;;;;;;10.00;5.22;;;;;;;14.71;82.11;100433.37;1749839;82;21409;-47
2022/04/25 06:10:54;;;;;;;15.32;5.75;;;;;;;14.88;82.02;100424.94;1749930;80;20999;-45
2022/04/25 06:13:24;;;;;;;14.38;6.45;;;;;;;15.08;81.44;100428.13;1722810;82;21476;-45
2022/04/25 06:15:50;;;;;;;14.30;6.20;;;;;;;15.29;80.31;100425.61;1749927;82;20920;-47
2022/04/25 06:18:17;;;;;;;16.10;6.25;;;;;;;15.44;79.54;100423.69;1749948;82;20940;-46
2022/04/25 06:20:45;;;;;;;15.78;6.30;;;;;;;15.63;79.39;100424.27;1749978;81;21038;-46
2022/04/25 06:23:13;;;;;;;16.00;6.70;;;;;;;15.85;77.92;100418.19;1749831;82;20991;-46
2022/04/25 06:25:41;;;;;;;16.00;6.60;;;;;;;15.93;76.26;100414.39;1749919;82;20873;-46
2022/04/25 06:28:08;;;;;;;16.82;6.65;;;;;;;15.96;76.60;100419.92;1749920;81;20965;-46
2022/04/25 06:30:36;;;;;;;13.30;5.90;;;;;;;16.01;76.54;100424.48;1749911;82;21363;-46
2022/04/25 06:33:05;;;;;;;13.75;6.55;;;;;;;16.14;76.40;100421.38;1749974;82;21510;-47
2022/04/25 06:35:33;;;;;;;10.55;5.92;;;;;;;16.24;75.20;100421.36;1749827;80;21446;-46
2022/04/25 06:37:59;;;;;;;11.85;6.60;;;;;;;16.31;75.07;100421.52;1750146;82;21466;-46
2022/04/25 06:40:26;;;;;;;18.48;6.85;;;;;;;16.38;74.80;100412.93;1750030;82;21421;-46
2022/04/25 06:42:56;;;;;;;11.80;6.40;;;;;;;16.52;74.26;100420.16;1750039;82;20889;-46
2022/04/25 06:45:24;;;;;;;16.25;6.50;;;;;;;16.73;74.17;100414.91;1749959;82;20917;-48
2022/04/25 06:47:52;;;;;;;10.45;5.80;;;;;;;16.90;72.87;100422.84;1749846;81;20900;-47
2022/04/25 06:50:19;;;;;;;15.45;6.00;;;;;;;17.08;72.52;100419.04;1749863;82;20966;-47
2022/04/25 06:52:46;;;;;;;20.60;6.62;;;;;;;17.24;70.48;100416.08;1749924;82;20944;-47
2022/04/25 06:55:13;;;;;;;14.43;6.50;;;;;;;17.33;71.27;100419.20;1749995;82;20912;-46
2022/04/25 06:57:39;;;;;;;15.13;5.90;;;;;;;17.51;72.09;100408.30;1749934;82;21260;-46
2022/04/25 07:00:11;;;;;;;11.20;6.47;;;;;;;17.73;70.74;100402.86;1749921;82;20932;-48
2022/04/25 07:02:39;;;;;;;11.65;5.80;;;;;;;17.95;69.63;100407.89;1750021;82;20984;-46
2022/04/25 07:05:07;;;;;;;13.20;6.58;;;;;;;18.17;68.89;100408.60;1749712;82;20971;-46
2022/04/25 07:07:35;;;;;;;12.25;6.50;;;;;;;18.35;68.95;100402.87;1749949;81;20995;-47
2022/04/25 07:10:04;;;;;;;11.55;5.28;;;;;;;18.50;67.74;100407.77;1750119;82;21103;-48
2022/04/25 07:12:32;;;;;;;10.25;5.45;;;;;;;18.57;67.25;100409.16;1749763;81;20931;-47
2022/04/25 07:15:04;;;;;;;14.75;5.58;;;;;;;18.58;66.67;100405.61;1749835;82;20888;-47
2022/04/25 07:17:29;;;;;;;14.98;5.67;;;;;;;18.57;66.57;100404.37;1749613;82;20940;-47
2022/04/25 07:19:56;;;;;;;8.00;5.28;;;;;;;18.61;66.54;100406.75;1750019;81;20963;-48
2022/04/25 07:30:41;;;;;;;5.72;4.50;;;;;;;18.92;65.81;100406.86;1749683;82;20948;-47
2022/04/25 07:33:07;;;;;;;11.05;5.65;;;;;;;19.09;65.80;100402.06;1750027;82;20901;-47
2022/04/25 07:35:36;;;;;;;12.43;5.08;;;;;;;19.24;64.85;100399.88;1749902;82;20880;-47
2022/04/25 07:38:03;;;;;;;11.70;5.35;;;;;;;19.40;64.77;100404.28;1749763;81;20964;-48
2022/04/25 07:40:30;;;;;;;10.00;5.78;;;;;;;19.63;63.34;100398.19;1749861;82;21169;-48
2022/04/25 07:42:57;;;;;;;12.80;5.95;;;;;;;19.79;63.19;100401.60;1749861;82;20889;-48
2022/04/25 07:45:24;;;;;;;8.98;4.83;;;;;;;19.96;62.36;100398.50;1749836;82;20865;-48
2022/04/25 07:47:51;;;;;;;13.93;5.70;;;;;;;20.03;60.94;100398.50;1749885;82;21236;-47
2022/04/25 07:50:23;;;;;;;7.58;4.80;;;;;;;19.97;61.75;100394.11;1749689;81;20912;-47
2022/04/25 07:52:48;;;;;;;10.90;4.80;;;;;;;19.94;62.49;100393.33;1749783;81;20984;-47
2022/04/25 07:55:16;;;;;;;8.00;4.33;;;;;;;19.98;60.54;100387.92;1749647;82;21041;-47
2022/04/25 07:57:43;;;;;;;9.18;4.40;;;;;;;19.93;60.77;100386.37;1750016;82;20925;-48
2022/04/25 08:00:12;;;;;;;9.35;4.22;;;;;;;19.94;61.40;100386.76;1749889;82;21126;-46
2022/04/25 08:02:40;;;;;;;13.08;5.40;;;;;;;20.00;60.45;100386.88;1749830;82;21003;-47
2022/04/25 08:05:08;;;;;;;6.08;4.05;;;;;;;20.01;60.69;100389.87;1749846;82;20991;-48
2022/04/25 08:07:36;;;;;;;8.03;4.95;;;;;;;20.14;60.38;100386.53;1749684;81;21501;-47
2022/04/25 08:10:04;;;;;;;9.35;4.87;;;;;;;20.25;60.31;100384.09;1749907;82;20897;-47
2022/04/25 08:18:06;;;;;;;7.92;4.83;;;;;;;20.36;60.55;100380.36;1749928;82;20975;-48
2022/04/25 08:20:37;;;;;;;8.20;4.67;;;;;;;20.46;59.80;100385.05;1749806;82;21038;-47
2022/04/25 08:23:08;;;;;;;10.65;4.85;;;;;;;20.49;59.31;100384.85;1749758;82;21034;-47
2022/04/25 08:25:37;;;;;;;6.45;4.67;;;;;;;20.50;59.30;100381.28;1723305;82;20999;-47
2022/04/25 08:28:07;;;;;;;7.28;4.87;;;;;;;20.55;59.76;100373.95;1749709;82;20991;-48
2022/04/25 08:30:35;;;;;;;10.90;4.70;;;;;;;20.62;60.58;100380.54;1749710;82;20932;-48
2022/04/25 08:33:01;;;;;;;9.25;4.50;;;;;;;20.72;60.07;100376.88;1749731;81;20975;-47
2022/04/25 08:35:29;;;;;;;7.33;4.25;;;;;;;20.96;59.83;100369.69;1749919;82;21059;-47
2022/04/25 08:37:56;;;;;;;10.05;4.75;;;;;;;21.18;57.63;100358.66;1750032;82;21080;-47
2022/04/25 08:40:23;;;;;;;9.63;5.10;;;;;;;21.20;57.41;100365.98;1749758;82;20873;-47
2022/04/25 08:42:53;;;;;;;10.15;4.60;;;;;;;21.21;58.29;100362.40;1739240;82;20887;-48
2022/04/25 08:45:21;;;;;;;10.82;4.72;;;;;;;21.37;58.28;100344.30;1749796;82;21014;-48
2022/04/25 08:48:01;;;;;;;9.13;4.50;;;;;;;21.61;57.36;100352.84;1749839;82;20971;-47
2022/04/25 08:50:27;;;;;;;8.88;4.67;;;;;;;21.74;56.70;100348.45;1748780;82;21084;-47
2022/04/25 08:52:54;;;;;;;5.45;3.80;;;;;;;21.87;56.09;100351.10;1749821;82;20857;-47
2022/04/25 08:55:22;;;;;;;9.58;3.90;;;;;;;22.02;55.23;100343.94;1722688;82;21486;-47
2022/04/25 08:57:51;;;;;;;11.28;4.10;;;;;;;22.01;54.97;100348.84;1749914;81;20933;-48
2022/04/25 09:00:18;;;;;;;10.63;4.55;;;;;;;21.92;54.30;100341.58;1749813;82;21019;-46
2022/04/25 09:02:47;;;;;;;6.87;4.20;;;;;;;21.88;54.50;100340.11;1749910;82;20979;-47
2022/04/25 09:05:17;;;;;;;13.88;4.55;;;;;;;21.80;55.05;100330.91;1749915;82;20873;-47
2022/04/25 09:07:44;;;;;;;7.50;4.62;;;;;;;21.73;55.57;100333.59;1749834;81;21442;-47
2022/04/25 09:10:15;;;;;;;5.90;4.45;;;;;;;21.69;55.40;100322.91;1749829;82;20897;-47
2022/04/25 09:12:45;;;;;;;9.10;4.35;;;;;;;21.57;56.06;100322.37;1749960;82;21003;-47
2022/04/25 09:15:11;;;;;;;12.05;4.50;;;;;;;21.56;55.69;100319.36;1750001;82;21136;-47
2022/04/25 09:17:38;;;;;;;7.15;4.12;;;;;;;21.30;56.23;100326.74;1749729;81;20952;-47
2022/04/25 09:20:09;;;;;;;7.20;3.77;;;;;;;21.23;57.53;100321.03;1749739;81;20845;-47
2022/04/25 09:22:42;;;;;;;6.12;3.75;;;;;;;21.20;57.12;100322.55;1749986;82;21186;-47
2022/04/25 09:25:11;;;;;;;5.60;4.40;;;;;;;21.16;57.08;100319.75;1750036;82;20909;-47
2022/04/25 09:27:38;;;;;;;5.60;4.20;;;;;;;21.05;56.88;100311.70;1749912;80;21261;-47
2022/04/25 09:30:20;;;;;;;5.65;4.10;;;;;;;20.94;56.85;100318.97;1749841;82;20928;-47
2022/04/25 09:32:51;;;;;;;9.05;4.12;;;;;;;20.78;56.01;100318.63;1716201;80;20976;-47
2022/04/25 09:35:37;;;;;;;6.08;3.80;;;;;;;20.64;56.57;100312.92;1750043;82;21026;-47
2022/04/25 09:38:04;;;;;;;7.35;3.55;;;;;;;20.71;57.24;100305.95;1748711;82;20940;-48
2022/04/25 09:40:35;;;;;;;5.42;3.65;;;;;;;20.75;55.87;100312.25;1750011;82;21214;-48
2022/04/25 09:43:08;;;;;;;4.25;3.42;;;;;;;20.78;54.21;100304.16;1749104;82;20877;-49
2022/04/25 09:45:39;;;;;;;8.38;3.67;;;;;;;20.98;55.65;100303.39;1749932;82;20933;-48
2022/04/25 09:48:15;;;;;;;7.87;3.72;;;;;;;21.40;54.14;100295.39;1749894;82;20905;-48
2022/04/25 09:50:44;;;;;;;6.90;3.65;;;;;;;21.84;53.83;100286.77;1723729;82;20905;-46
2022/04/25 09:53:11;;;;;;;4.50;3.20;;;;;;;22.35;51.86;100284.55;1749961;82;21100;-47
2022/04/25 09:55:39;;;;;;;7.05;3.17;;;;;;;22.65;48.99;100283.35;1750042;82;20837;-47
2022/04/25 09:58:17;;;;;;;7.90;3.08;;;;;;;22.66;49.98;100279.77;1749851;82;20983;-47
2022/04/25 10:00:44;;;;;;;8.83;2.67;;;;;;;22.72;48.67;100279.77;1750062;82;20975;-47
2022/04/25 10:03:11;;;;;;;4.83;2.90;;;;;;;22.72;49.94;100278.95;1750049;82;20877;-47
2022/04/25 10:05:45;;;;;;;4.87;2.70;;;;;;;22.79;48.26;100274.90;1750095;82;22023;-48
2022/04/25 10:08:16;;;;;;;5.58;2.75;;;;;;;22.99;48.20;100275.23;1742038;81;20996;-46
2022/04/25 10:10:51;;;;;;;5.37;2.60;;;;;;;23.32;48.12;100270.59;1735289;81;20858;-47
2022/04/25 10:13:18;;;;;;;7.03;3.20;;;;;;;23.53;46.30;100269.44;1736079;81;21389;-48
2022/04/25 10:15:45;;;;;;;3.67;2.42;;;;;;;23.69;44.83;100269.59;1735890;81;21086;-49
2022/04/25 10:18:14;;;;;;;6.45;2.83;;;;;;;23.68;44.23;100271.88;1735953;82;20869;-48
2022/04/25 10:20:44;;;;;;;5.58;2.50;;;;;;;23.62;44.08;100269.68;1735835;82;20917;-47
2022/04/25 10:23:11;;;;;;;4.20;2.12;;;;;;;23.51;43.74;100263.44;1736037;82;21531;-47
2022/04/25 10:25:40;;;;;;;4.15;2.52;;;;;;;23.43;44.50;100261.01;1735962;82;20929;-48
2022/04/25 10:28:15;;;;;;;5.22;2.75;;;;;;;23.26;44.40;100259.19;1735881;82;20925;-48
2022/04/25 10:30:47;;;;;;;3.83;2.50;;;;;;;22.85;42.64;100253.33;1736265;82;21119;-47
2022/04/25 10:33:17;;;;;;;6.47;2.85;;;;;;;22.50;44.86;100255.44;1736034;82;20885;-48
2022/04/25 10:35:51;;;;;;;8.63;2.70;;;;;;;22.31;45.08;100253.25;1735761;82;20999;-47
2022/04/25 10:38:48;;;;;;;10.43;2.90;;;;;;;22.24;45.08;100258.97;1735856;82;21004;-47
2022/04/25 10:44:23;;;;;;;9.20;2.58;;;;;;;22.88;43.97;100258.41;1736042;81;21079;-48
2022/04/25 10:47:11;;;;;;;7.00;2.58;;;;;;;22.95;45.23;100258.31;1735946;82;20933;-48
2022/04/25 10:49:59;;;;;;;4.55;2.50;;;;;;;23.24;43.13;100250.02;1736024;82;21474;-47
2022/04/25 10:52:43;;;;;;;6.28;2.45;;;;;;;23.61;43.76;100245.55;1735902;82;20973;-47
2022/04/25 10:55:19;;;;;;;4.90;2.70;;;;;;;24.03;41.38;100249.81;1735647;82;20874;-49
2022/04/25 10:58:08;;;;;;;9.98;2.47;;;;;;;24.22;39.55;100237.30;1735771;82;21121;-47
2022/04/25 11:00:41;;;;;;;5.10;2.35;;;;;;;23.81;39.53;100239.57;1736177;81;20972;-48
2022/04/25 11:03:18;;;;;;;5.53;2.67;;;;;;;23.56;41.09;100234.50;1735965;82;20989;-48
2022/04/25 11:05:55;;;;;;;5.42;2.10;;;;;;;23.57;41.38;100234.40;1735915;82;20996;-46
2022/04/25 11:08:30;;;;;;;;;;;;;;;23.78;40.98;100235.02;1742525;81;20971;-47
2022/04/25 11:11:01;;;;;;;2.93;2.03;;;;;;;23.82;39.35;100236.46;1744311;81;21887;-46
2022/04/25 11:13:31;;;;;;;7.47;2.70;;;;;;;23.85;40.00;100228.75;1744151;82;21770;-47
2022/04/25 11:16:22;;;;;;;5.65;2.30;;;;;;;23.82;39.38;100231.17;1743968;81;21490;-47
2022/04/25 11:19:14;;;;;;;4.35;1.80;;;;;;;23.94;39.73;100229.38;1744204;81;20964;-47
2022/04/25 11:21:46;;;;;;;5.05;2.40;;;;;;;24.00;39.94;100212.17;1743958;82;20997;-47
2022/04/25 11:24:35;;;;;;;3.45;2.27;;;;;;;23.93;40.10;100213.16;1744065;81;21113;-48
2022/04/25 11:27:05;;;;;;;3.92;2.10;;;;;;;23.71;39.10;100212.20;1744067;82;20944;-47
2022/04/25 11:29:33;;;;;;;6.87;2.37;;;;;;;23.35;40.02;100208.78;1715406;82;20937;-47
2022/04/25 11:32:26;;;;;;;2.75;2.20;;;;;;;23.29;41.86;100201.33;1711025;82;20980;-48
2022/04/25 11:35:00;;;;;;;5.53;1.98;;;;;;;23.52;42.06;100207.02;1744101;82;20890;-48
2022/04/25 11:37:29;;;;;;;5.30;2.62;;;;;;;23.89;41.06;100202.48;1743932;82;20984;-48
2022/04/25 11:40:04;;;;;;;4.33;2.40;;;;;;;24.32;39.64;100200.88;1744016;82;22330;-47
2022/04/25 11:42:34;;;;;;;4.70;2.12;;;;;;;24.64;38.28;100192.97;1743883;82;20941;-48
2022/04/25 11:45:01;;;;;;;3.30;2.30;;;;;;;24.80;38.42;100190.39;1744398;82;20980;-48
2022/04/25 11:47:31;;;;;;;6.28;2.52;;;;;;;24.73;39.42;100191.84;1744025;82;20881;-48
2022/04/25 11:50:04;;;;;;;3.08;2.20;;;;;;;24.66;39.24;100188.86;1744161;81;20973;-47
2022/04/25 11:52:31;;;;;;;6.03;2.17;;;;;;;24.32;38.91;100187.16;1743193;82;20933;-47
2022/04/25 11:54:57;;;;;;;21.60;2.98;;;;;;;23.95;40.54;100186.95;1744094;82;20976;-47
2022/04/25 11:57:26;;;;;;;5.90;2.37;;;;;;;23.83;40.50;100183.48;1744041;82;21078;-47
2022/04/25 12:00:14;;;;;;;6.58;2.60;;;;;;;23.98;40.10;100183.23;1744019;82;21419;-47
2022/04/25 12:02:43;;;;;;;7.17;2.27;;;;;;;24.12;40.56;100186.13;1744036;81;21047;-47